sensor_id;sensor_type;location;lat;lon;timestamp;P1;durP1;ratioP1;P2;durP2;ratioP2
70148;SDS011;57514;52.164;5.282;2022-12-07T00:01:47;13.00;;;6.15;;
70148;SDS011;57514;52.164;5.282;2022-12-07T00:04:15;13.30;;;5.10;;
70148;SDS011;57514;52.164;5.282;2022-12-07T00:06:43;11.73;;;5.03;;
70148;SDS011;57514;52.164;5.282;2022-12-07T00:09:15;12.48;;;5.45;;
70148;SDS011;57514;52.164;5.282;2022-12-07T00:11:43;14.32;;;5.70;;
70148;SDS011;57514;52.164;5.282;2022-12-07T00:14:12;14.80;;;5.55;;
70148;SDS011;57514;52.164;5.282;2022-12-07T00:16:39;11.38;;;5.18;;
70148;SDS011;57514;52.164;5.282;2022-12-07T00:19:07;14.48;;;5.65;;
70148;SDS011;57514;52.164;5.282;2022-12-07T00:21:34;12.23;;;5.80;;
70148;SDS011;57514;52.164;5.282;2022-12-07T00:24:03;17.25;;;5.35;;
70148;SDS011;57514;52.164;5.282;2022-12-07T00:26:34;13.02;;;5.78;;
70148;SDS011;57514;52.164;5.282;2022-12-07T00:29:04;13.75;;;5.43;;
70148;SDS011;57514;52.164;5.282;2022-12-07T00:31:33;14.43;;;5.20;;
70148;SDS011;57514;52.164;5.282;2022-12-07T00:34:02;11.90;;;5.30;;
70148;SDS011;57514;52.164;5.282;2022-12-07T00:36:29;12.77;;;4.55;;
70148;SDS011;57514;52.164;5.282;2022-12-07T00:38:59;10.70;;;4.80;;
70148;SDS011;57514;52.164;5.282;2022-12-07T00:41:27;12.30;;;5.00;;
70148;SDS011;57514;52.164;5.282;2022-12-07T00:43:55;13.00;;;5.00;;
70148;SDS011;57514;52.164;5.282;2022-12-07T00:46:22;11.93;;;5.57;;
70148;SDS011;57514;52.164;5.282;2022-12-07T00:48:50;11.77;;;4.90;;
70148;SDS011;57514;52.164;5.282;2022-12-07T00:51:19;11.10;;;4.90;;
70148;SDS011;57514;52.164;5.282;2022-12-07T00:53:46;16.25;;;5.50;;
70148;SDS011;57514;52.164;5.282;2022-12-07T00:56:15;11.35;;;6.07;;
70148;SDS011;57514;52.164;5.282;2022-12-07T00:58:42;13.02;;;6.43;;
70148;SDS011;57514;52.164;5.282;2022-12-07T01:01:10;11.15;;;4.32;;
70148;SDS011;57514;52.164;5.282;2022-12-07T01:03:38;11.20;;;5.22;;
70148;SDS011;57514;52.164;5.282;2022-12-07T01:06:05;14.13;;;5.13;;
70148;SDS011;57514;52.164;5.282;2022-12-07T01:08:32;11.55;;;4.35;;
70148;SDS011;57514;52.164;5.282;2022-12-07T01:11:00;10.50;;;4.53;;
70148;SDS011;57514;52.164;5.282;2022-12-07T01:13:28;14.27;;;5.38;;
70148;SDS011;57514;52.164;5.282;2022-12-07T01:15:59;12.70;;;5.63;;
70148;SDS011;57514;52.164;5.282;2022-12-07T01:18:27;9.85;;;4.47;;
70148;SDS011;57514;52.164;5.282;2022-12-07T01:23:48;9.50;;;4.25;;
70148;SDS011;57514;52.164;5.282;2022-12-07T01:26:17;14.20;;;4.95;;
70148;SDS011;57514;52.164;5.282;2022-12-07T01:28:45;10.48;;;4.90;;
70148;SDS011;57514;52.164;5.282;2022-12-07T01:31:13;11.23;;;5.20;;
70148;SDS011;57514;52.164;5.282;2022-12-07T01:33:42;9.80;;;4.47;;
70148;SDS011;57514;52.164;5.282;2022-12-07T01:36:14;12.00;;;5.07;;
70148;SDS011;57514;52.164;5.282;2022-12-07T01:38:43;10.30;;;4.30;;
70148;SDS011;57514;52.164;5.282;2022-12-07T01:41:11;9.43;;;4.45;;
70148;SDS011;57514;52.164;5.282;2022-12-07T01:44:07;10.43;;;4.47;;
70148;SDS011;57514;52.164;5.282;2022-12-07T01:46:28;12.85;;;4.45;;
70148;SDS011;57514;52.164;5.282;2022-12-07T01:48:56;9.57;;;4.10;;
70148;SDS011;57514;52.164;5.282;2022-12-07T01:51:23;9.80;;;3.85;;
70148;SDS011;57514;52.164;5.282;2022-12-07T01:53:50;9.80;;;4.10;;
70148;SDS011;57514;52.164;5.282;2022-12-07T01:56:18;8.63;;;4.03;;
70148;SDS011;57514;52.164;5.282;2022-12-07T01:58:46;8.07;;;3.88;;
70148;SDS011;57514;52.164;5.282;2022-12-07T02:01:14;11.00;;;4.68;;
70148;SDS011;57514;52.164;5.282;2022-12-07T02:03:43;10.10;;;4.22;;
70148;SDS011;57514;52.164;5.282;2022-12-07T02:06:12;11.23;;;5.15;;
70148;SDS011;57514;52.164;5.282;2022-12-07T02:08:39;14.07;;;4.47;;
70148;SDS011;57514;52.164;5.282;2022-12-07T02:11:07;16.33;;;5.55;;
70148;SDS011;57514;52.164;5.282;2022-12-07T02:13:35;13.75;;;4.97;;
70148;SDS011;57514;52.164;5.282;2022-12-07T02:26:30;10.43;;;4.10;;
70148;SDS011;57514;52.164;5.282;2022-12-07T02:31:40;11.05;;;4.60;;
70148;SDS011;57514;52.164;5.282;2022-12-07T02:34:12;13.60;;;4.70;;
70148;SDS011;57514;52.164;5.282;2022-12-07T02:36:46;10.07;;;4.25;;
70148;SDS011;57514;52.164;5.282;2022-12-07T02:39:17;12.35;;;4.25;;
70148;SDS011;57514;52.164;5.282;2022-12-07T02:41:51;15.13;;;5.40;;
70148;SDS011;57514;52.164;5.282;2022-12-07T02:44:20;9.60;;;3.60;;
70148;SDS011;57514;52.164;5.282;2022-12-07T02:46:59;9.43;;;4.57;;
70148;SDS011;57514;52.164;5.282;2022-12-07T02:49:28;8.55;;;4.25;;
70148;SDS011;57514;52.164;5.282;2022-12-07T02:51:59;12.68;;;4.28;;
70148;SDS011;57514;52.164;5.282;2022-12-07T02:54:26;11.60;;;3.95;;
70148;SDS011;57514;52.164;5.282;2022-12-07T02:56:56;11.05;;;4.07;;
70148;SDS011;57514;52.164;5.282;2022-12-07T03:02:18;9.30;;;4.07;;
70148;SDS011;57514;52.164;5.282;2022-12-07T03:04:56;13.45;;;4.35;;
70148;SDS011;57514;52.164;5.282;2022-12-07T03:15:22;12.77;;;4.13;;
70148;SDS011;57514;52.164;5.282;2022-12-07T03:17:52;8.50;;;3.72;;
70148;SDS011;57514;52.164;5.282;2022-12-07T03:20:21;9.00;;;3.67;;
70148;SDS011;57514;52.164;5.282;2022-12-07T03:22:50;10.73;;;4.45;;
70148;SDS011;57514;52.164;5.282;2022-12-07T03:25:18;12.45;;;4.18;;
70148;SDS011;57514;52.164;5.282;2022-12-07T03:27:48;12.85;;;4.30;;
70148;SDS011;57514;52.164;5.282;2022-12-07T03:30:19;10.18;;;3.72;;
70148;SDS011;57514;52.164;5.282;2022-12-07T03:32:49;9.48;;;3.88;;
70148;SDS011;57514;52.164;5.282;2022-12-07T03:35:22;9.65;;;3.92;;
70148;SDS011;57514;52.164;5.282;2022-12-07T03:37:59;10.02;;;3.55;;
70148;SDS011;57514;52.164;5.282;2022-12-07T03:40:34;12.10;;;4.18;;
70148;SDS011;57514;52.164;5.282;2022-12-07T03:43:02;11.18;;;3.83;;
70148;SDS011;57514;52.164;5.282;2022-12-07T03:45:40;12.00;;;3.88;;
70148;SDS011;57514;52.164;5.282;2022-12-07T03:50:40;9.98;;;3.80;;
70148;SDS011;57514;52.164;5.282;2022-12-07T03:53:18;10.38;;;4.05;;
70148;SDS011;57514;52.164;5.282;2022-12-07T03:55:46;10.27;;;3.58;;
70148;SDS011;57514;52.164;5.282;2022-12-07T03:58:16;13.43;;;4.53;;
70148;SDS011;57514;52.164;5.282;2022-12-07T04:00:44;9.02;;;3.45;;
70148;SDS011;57514;52.164;5.282;2022-12-07T04:03:11;5.72;;;2.63;;
70148;SDS011;57514;52.164;5.282;2022-12-07T04:05:39;8.38;;;3.42;;
70148;SDS011;57514;52.164;5.282;2022-12-07T04:08:06;11.00;;;4.18;;
70148;SDS011;57514;52.164;5.282;2022-12-07T04:10:34;10.07;;;3.33;;
70148;SDS011;57514;52.164;5.282;2022-12-07T04:13:01;8.70;;;3.13;;
70148;SDS011;57514;52.164;5.282;2022-12-07T04:15:29;6.35;;;2.60;;
70148;SDS011;57514;52.164;5.282;2022-12-07T04:17:56;7.63;;;2.70;;
70148;SDS011;57514;52.164;5.282;2022-12-07T04:20:23;9.68;;;4.25;;
70148;SDS011;57514;52.164;5.282;2022-12-07T04:22:51;8.88;;;3.05;;
70148;SDS011;57514;52.164;5.282;2022-12-07T04:25:18;8.63;;;3.42;;
70148;SDS011;57514;52.164;5.282;2022-12-07T04:27:45;8.68;;;2.95;;
70148;SDS011;57514;52.164;5.282;2022-12-07T04:30:12;9.13;;;3.53;;
70148;SDS011;57514;52.164;5.282;2022-12-07T04:32:40;8.43;;;2.90;;
70148;SDS011;57514;52.164;5.282;2022-12-07T04:35:07;11.57;;;3.17;;
70148;SDS011;57514;52.164;5.282;2022-12-07T04:37:35;12.40;;;3.28;;
70148;SDS011;57514;52.164;5.282;2022-12-07T04:40:02;8.90;;;2.83;;
70148;SDS011;57514;52.164;5.282;2022-12-07T04:42:30;8.50;;;2.10;;
70148;SDS011;57514;52.164;5.282;2022-12-07T04:44:57;9.35;;;1.80;;
70148;SDS011;57514;52.164;5.282;2022-12-07T04:47:24;8.63;;;2.05;;
70148;SDS011;57514;52.164;5.282;2022-12-07T04:49:51;5.38;;;2.03;;
70148;SDS011;57514;52.164;5.282;2022-12-07T04:52:18;6.95;;;1.90;;
70148;SDS011;57514;52.164;5.282;2022-12-07T04:54:46;6.80;;;1.73;;
70148;SDS011;57514;52.164;5.282;2022-12-07T04:57:13;5.55;;;1.70;;
70148;SDS011;57514;52.164;5.282;2022-12-07T04:59:40;4.80;;;1.67;;
70148;SDS011;57514;52.164;5.282;2022-12-07T05:04:38;6.25;;;1.88;;
70148;SDS011;57514;52.164;5.282;2022-12-07T05:07:05;5.00;;;1.60;;
70148;SDS011;57514;52.164;5.282;2022-12-07T05:09:32;2.88;;;1.42;;
70148;SDS011;57514;52.164;5.282;2022-12-07T05:12:00;4.03;;;1.83;;
70148;SDS011;57514;52.164;5.282;2022-12-07T05:14:27;7.53;;;1.60;;
70148;SDS011;57514;52.164;5.282;2022-12-07T05:16:54;7.80;;;1.58;;
70148;SDS011;57514;52.164;5.282;2022-12-07T05:19:21;5.78;;;1.45;;
70148;SDS011;57514;52.164;5.282;2022-12-07T05:21:48;7.35;;;1.83;;
70148;SDS011;57514;52.164;5.282;2022-12-07T05:24:16;9.05;;;1.85;;
70148;SDS011;57514;52.164;5.282;2022-12-07T05:26:44;6.47;;;2.13;;
70148;SDS011;57514;52.164;5.282;2022-12-07T05:29:12;8.20;;;1.98;;
70148;SDS011;57514;52.164;5.282;2022-12-07T05:31:40;4.05;;;1.48;;
70148;SDS011;57514;52.164;5.282;2022-12-07T05:34:07;5.70;;;1.92;;
70148;SDS011;57514;52.164;5.282;2022-12-07T05:36:34;4.22;;;1.50;;
70148;SDS011;57514;52.164;5.282;2022-12-07T05:39:02;9.98;;;2.25;;
70148;SDS011;57514;52.164;5.282;2022-12-07T05:41:29;4.55;;;2.00;;
70148;SDS011;57514;52.164;5.282;2022-12-07T05:44:15;4.72;;;1.83;;
70148;SDS011;57514;52.164;5.282;2022-12-07T05:46:42;5.68;;;1.75;;
70148;SDS011;57514;52.164;5.282;2022-12-07T05:49:09;5.72;;;1.83;;
70148;SDS011;57514;52.164;5.282;2022-12-07T05:51:36;5.25;;;2.05;;
70148;SDS011;57514;52.164;5.282;2022-12-07T05:54:04;6.32;;;2.05;;
70148;SDS011;57514;52.164;5.282;2022-12-07T05:56:31;6.10;;;2.20;;
70148;SDS011;57514;52.164;5.282;2022-12-07T05:58:58;5.88;;;1.92;;
70148;SDS011;57514;52.164;5.282;2022-12-07T06:01:44;6.45;;;2.10;;
70148;SDS011;57514;52.164;5.282;2022-12-07T06:04:11;7.35;;;2.47;;
70148;SDS011;57514;52.164;5.282;2022-12-07T06:06:38;7.45;;;1.98;;
70148;SDS011;57514;52.164;5.282;2022-12-07T06:09:05;10.55;;;2.67;;
70148;SDS011;57514;52.164;5.282;2022-12-07T06:11:33;12.77;;;2.55;;
70148;SDS011;57514;52.164;5.282;2022-12-07T06:14:19;6.22;;;2.10;;
70148;SDS011;57514;52.164;5.282;2022-12-07T06:16:46;8.60;;;2.28;;
70148;SDS011;57514;52.164;5.282;2022-12-07T06:19:13;10.07;;;2.47;;
70148;SDS011;57514;52.164;5.282;2022-12-07T06:21:41;7.72;;;2.78;;
70148;SDS011;57514;52.164;5.282;2022-12-07T06:24:09;7.40;;;3.13;;
70148;SDS011;57514;52.164;5.282;2022-12-07T06:26:37;4.53;;;1.77;;
70148;SDS011;57514;52.164;5.282;2022-12-07T06:29:05;8.88;;;3.30;;
70148;SDS011;57514;52.164;5.282;2022-12-07T06:31:32;4.57;;;2.22;;
70148;SDS011;57514;52.164;5.282;2022-12-07T06:34:00;9.13;;;3.40;;
70148;SDS011;57514;52.164;5.282;2022-12-07T06:36:28;10.15;;;3.20;;
70148;SDS011;57514;52.164;5.282;2022-12-07T06:38:55;12.00;;;3.28;;
70148;SDS011;57514;52.164;5.282;2022-12-07T06:41:23;10.23;;;4.15;;
70148;SDS011;57514;52.164;5.282;2022-12-07T06:43:50;14.80;;;5.13;;
70148;SDS011;57514;52.164;5.282;2022-12-07T06:46:21;11.57;;;4.13;;
70148;SDS011;57514;52.164;5.282;2022-12-07T06:48:49;13.23;;;4.20;;
70148;SDS011;57514;52.164;5.282;2022-12-07T06:51:16;12.82;;;3.88;;
70148;SDS011;57514;52.164;5.282;2022-12-07T06:53:44;10.82;;;3.88;;
70148;SDS011;57514;52.164;5.282;2022-12-07T06:56:11;8.00;;;2.85;;
70148;SDS011;57514;52.164;5.282;2022-12-07T06:58:39;5.95;;;2.35;;
70148;SDS011;57514;52.164;5.282;2022-12-07T07:01:10;12.30;;;2.50;;
70148;SDS011;57514;52.164;5.282;2022-12-07T07:03:37;13.43;;;2.58;;
70148;SDS011;57514;52.164;5.282;2022-12-07T07:06:05;9.63;;;3.08;;
70148;SDS011;57514;52.164;5.282;2022-12-07T07:08:34;7.75;;;2.72;;
70148;SDS011;57514;52.164;5.282;2022-12-07T07:11:02;9.50;;;2.83;;
70148;SDS011;57514;52.164;5.282;2022-12-07T07:13:30;7.28;;;3.05;;
70148;SDS011;57514;52.164;5.282;2022-12-07T07:15:57;8.43;;;3.13;;
70148;SDS011;57514;52.164;5.282;2022-12-07T07:18:24;9.82;;;3.30;;
70148;SDS011;57514;52.164;5.282;2022-12-07T07:20:52;10.38;;;3.13;;
70148;SDS011;57514;52.164;5.282;2022-12-07T07:23:19;10.88;;;2.85;;
70148;SDS011;57514;52.164;5.282;2022-12-07T07:25:47;7.18;;;2.65;;
70148;SDS011;57514;52.164;5.282;2022-12-07T07:28:15;9.68;;;2.70;;
70148;SDS011;57514;52.164;5.282;2022-12-07T07:30:42;8.98;;;2.80;;
70148;SDS011;57514;52.164;5.282;2022-12-07T07:33:10;13.05;;;4.05;;
70148;SDS011;57514;52.164;5.282;2022-12-07T07:35:37;23.70;;;6.80;;
70148;SDS011;57514;52.164;5.282;2022-12-07T07:38:05;17.02;;;5.47;;
70148;SDS011;57514;52.164;5.282;2022-12-07T07:40:32;13.43;;;4.63;;
70148;SDS011;57514;52.164;5.282;2022-12-07T07:43:00;11.10;;;3.95;;
70148;SDS011;57514;52.164;5.282;2022-12-07T07:45:27;9.50;;;3.60;;
70148;SDS011;57514;52.164;5.282;2022-12-07T07:47:54;18.00;;;4.57;;
70148;SDS011;57514;52.164;5.282;2022-12-07T07:50:22;10.85;;;3.95;;
70148;SDS011;57514;52.164;5.282;2022-12-07T07:52:49;15.32;;;4.05;;
70148;SDS011;57514;52.164;5.282;2022-12-07T07:55:16;8.38;;;3.13;;
70148;SDS011;57514;52.164;5.282;2022-12-07T07:57:44;10.02;;;3.38;;
70148;SDS011;57514;52.164;5.282;2022-12-07T08:00:18;10.57;;;3.75;;
70148;SDS011;57514;52.164;5.282;2022-12-07T08:02:45;8.52;;;3.28;;
70148;SDS011;57514;52.164;5.282;2022-12-07T08:05:13;10.95;;;4.05;;
70148;SDS011;57514;52.164;5.282;2022-12-07T08:07:40;12.57;;;3.83;;
70148;SDS011;57514;52.164;5.282;2022-12-07T08:10:08;10.32;;;3.35;;
70148;SDS011;57514;52.164;5.282;2022-12-07T08:12:37;12.68;;;3.20;;
70148;SDS011;57514;52.164;5.282;2022-12-07T08:15:25;10.18;;;3.70;;
70148;SDS011;57514;52.164;5.282;2022-12-07T08:17:52;15.85;;;3.72;;
70148;SDS011;57514;52.164;5.282;2022-12-07T08:20:20;10.88;;;2.92;;
70148;SDS011;57514;52.164;5.282;2022-12-07T08:22:47;8.23;;;2.40;;
70148;SDS011;57514;52.164;5.282;2022-12-07T08:25:14;6.90;;;2.33;;
70148;SDS011;57514;52.164;5.282;2022-12-07T08:27:42;7.97;;;2.15;;
70148;SDS011;57514;52.164;5.282;2022-12-07T08:30:09;7.63;;;2.50;;
70148;SDS011;57514;52.164;5.282;2022-12-07T08:32:37;10.57;;;2.88;;
70148;SDS011;57514;52.164;5.282;2022-12-07T08:35:05;11.82;;;2.75;;
70148;SDS011;57514;52.164;5.282;2022-12-07T08:37:33;6.07;;;2.15;;
70148;SDS011;57514;52.164;5.282;2022-12-07T08:40:00;12.52;;;3.33;;
70148;SDS011;57514;52.164;5.282;2022-12-07T08:42:28;14.68;;;3.65;;
70148;SDS011;57514;52.164;5.282;2022-12-07T08:45:05;17.52;;;4.72;;
70148;SDS011;57514;52.164;5.282;2022-12-07T08:47:33;12.15;;;4.57;;
70148;SDS011;57514;52.164;5.282;2022-12-07T08:50:01;13.60;;;4.55;;
70148;SDS011;57514;52.164;5.282;2022-12-07T08:52:31;10.50;;;3.72;;
70148;SDS011;57514;52.164;5.282;2022-12-07T08:54:59;14.30;;;3.70;;
70148;SDS011;57514;52.164;5.282;2022-12-07T08:57:27;13.98;;;3.17;;
70148;SDS011;57514;52.164;5.282;2022-12-07T08:59:55;9.60;;;3.58;;
70148;SDS011;57514;52.164;5.282;2022-12-07T09:02:22;22.48;;;7.00;;
70148;SDS011;57514;52.164;5.282;2022-12-07T09:04:49;13.25;;;5.45;;
70148;SDS011;57514;52.164;5.282;2022-12-07T09:07:16;11.13;;;3.97;;
70148;SDS011;57514;52.164;5.282;2022-12-07T09:09:44;10.10;;;3.20;;
70148;SDS011;57514;52.164;5.282;2022-12-07T09:12:11;7.13;;;2.42;;
70148;SDS011;57514;52.164;5.282;2022-12-07T09:14:38;7.97;;;2.60;;
70148;SDS011;57514;52.164;5.282;2022-12-07T09:17:06;10.55;;;2.88;;
70148;SDS011;57514;52.164;5.282;2022-12-07T09:19:34;12.30;;;2.92;;
70148;SDS011;57514;52.164;5.282;2022-12-07T09:22:01;11.95;;;3.60;;
70148;SDS011;57514;52.164;5.282;2022-12-07T09:24:28;10.57;;;2.85;;
70148;SDS011;57514;52.164;5.282;2022-12-07T09:26:56;9.02;;;3.00;;
70148;SDS011;57514;52.164;5.282;2022-12-07T09:29:23;12.13;;;2.80;;
70148;SDS011;57514;52.164;5.282;2022-12-07T09:31:51;9.68;;;2.40;;
70148;SDS011;57514;52.164;5.282;2022-12-07T09:34:18;8.63;;;2.17;;
70148;SDS011;57514;52.164;5.282;2022-12-07T09:36:46;6.40;;;2.58;;
70148;SDS011;57514;52.164;5.282;2022-12-07T09:39:13;12.45;;;2.63;;
70148;SDS011;57514;52.164;5.282;2022-12-07T09:41:41;11.02;;;2.65;;
70148;SDS011;57514;52.164;5.282;2022-12-07T09:44:27;7.63;;;2.65;;
70148;SDS011;57514;52.164;5.282;2022-12-07T09:46:55;14.85;;;2.63;;
70148;SDS011;57514;52.164;5.282;2022-12-07T09:49:23;6.75;;;2.50;;
70148;SDS011;57514;52.164;5.282;2022-12-07T09:54:29;6.07;;;2.22;;
70148;SDS011;57514;52.164;5.282;2022-12-07T09:56:58;11.82;;;2.55;;
70148;SDS011;57514;52.164;5.282;2022-12-07T09:59:25;4.97;;;2.00;;
70148;SDS011;57514;52.164;5.282;2022-12-07T10:02:04;9.13;;;2.55;;
70148;SDS011;57514;52.164;5.282;2022-12-07T10:04:44;10.50;;;2.42;;
70148;SDS011;57514;52.164;5.282;2022-12-07T10:07:11;7.55;;;2.15;;
70148;SDS011;57514;52.164;5.282;2022-12-07T10:09:38;8.95;;;2.33;;
70148;SDS011;57514;52.164;5.282;2022-12-07T10:12:07;8.60;;;2.40;;
70148;SDS011;57514;52.164;5.282;2022-12-07T10:14:39;9.30;;;2.58;;
70148;SDS011;57514;52.164;5.282;2022-12-07T10:17:32;8.18;;;2.30;;
70148;SDS011;57514;52.164;5.282;2022-12-07T10:22:44;5.63;;;2.15;;
70148;SDS011;57514;52.164;5.282;2022-12-07T10:25:21;8.77;;;2.50;;
70148;SDS011;57514;52.164;5.282;2022-12-07T10:27:59;9.23;;;2.50;;
70148;SDS011;57514;52.164;5.282;2022-12-07T10:30:27;8.82;;;2.35;;
70148;SDS011;57514;52.164;5.282;2022-12-07T10:32:54;12.07;;;2.90;;
70148;SDS011;57514;52.164;5.282;2022-12-07T10:35:23;7.57;;;2.65;;
70148;SDS011;57514;52.164;5.282;2022-12-07T10:37:51;10.07;;;2.50;;
70148;SDS011;57514;52.164;5.282;2022-12-07T10:43:27;10.10;;;2.17;;
70148;SDS011;57514;52.164;5.282;2022-12-07T10:48:33;7.72;;;2.15;;
70148;SDS011;57514;52.164;5.282;2022-12-07T10:56:21;6.53;;;2.10;;
70148;SDS011;57514;52.164;5.282;2022-12-07T11:07:06;6.28;;;2.20;;
70148;SDS011;57514;52.164;5.282;2022-12-07T11:25:39;10.13;;;2.40;;
70148;SDS011;57514;52.164;5.282;2022-12-07T11:30:41;7.05;;;2.55;;
70148;SDS011;57514;52.164;5.282;2022-12-07T11:33:19;10.60;;;2.78;;
70148;SDS011;57514;52.164;5.282;2022-12-07T11:38:17;9.55;;;2.33;;
70148;SDS011;57514;52.164;5.282;2022-12-07T11:40:56;12.25;;;2.40;;
70148;SDS011;57514;52.164;5.282;2022-12-07T11:46:26;5.18;;;1.88;;
70148;SDS011;57514;52.164;5.282;2022-12-07T11:51:36;5.95;;;2.10;;
70148;SDS011;57514;52.164;5.282;2022-12-07T11:54:51;7.30;;;1.83;;
70148;SDS011;57514;52.164;5.282;2022-12-07T11:56:52;5.35;;;1.45;;
70148;SDS011;57514;52.164;5.282;2022-12-07T11:59:27;5.90;;;1.73;;
70148;SDS011;57514;52.164;5.282;2022-12-07T12:02:02;7.65;;;1.95;;
70148;SDS011;57514;52.164;5.282;2022-12-07T12:07:23;7.50;;;1.65;;
70148;SDS011;57514;52.164;5.282;2022-12-07T12:10:17;5.95;;;1.33;;
70148;SDS011;57514;52.164;5.282;2022-12-07T12:13:06;4.13;;;1.35;;
70148;SDS011;57514;52.164;5.282;2022-12-07T12:18:44;8.35;;;2.08;;
70148;SDS011;57514;52.164;5.282;2022-12-07T12:21:33;9.02;;;1.80;;
70148;SDS011;57514;52.164;5.282;2022-12-07T12:24:02;5.40;;;1.25;;
70148;SDS011;57514;52.164;5.282;2022-12-07T12:26:52;7.45;;;1.80;;
70148;SDS011;57514;52.164;5.282;2022-12-07T12:29:27;5.78;;;1.50;;
70148;SDS011;57514;52.164;5.282;2022-12-07T12:32:13;5.43;;;1.88;;
70148;SDS011;57514;52.164;5.282;2022-12-07T12:42:43;8.10;;;1.80;;
70148;SDS011;57514;52.164;5.282;2022-12-07T12:45:22;7.60;;;1.80;;
70148;SDS011;57514;52.164;5.282;2022-12-07T12:48:01;5.15;;;1.15;;
70148;SDS011;57514;52.164;5.282;2022-12-07T12:50:30;6.45;;;1.25;;
70148;SDS011;57514;52.164;5.282;2022-12-07T12:52:59;4.18;;;1.00;;
70148;SDS011;57514;52.164;5.282;2022-12-07T13:00:46;3.25;;;1.33;;
70148;SDS011;57514;52.164;5.282;2022-12-07T13:03:34;3.63;;;1.13;;
70148;SDS011;57514;52.164;5.282;2022-12-07T13:06:17;3.65;;;1.13;;
70148;SDS011;57514;52.164;5.282;2022-12-07T13:08:45;4.40;;;1.23;;
70148;SDS011;57514;52.164;5.282;2022-12-07T13:11:34;4.65;;;1.60;;
70148;SDS011;57514;52.164;5.282;2022-12-07T13:16:46;3.45;;;1.90;;
70148;SDS011;57514;52.164;5.282;2022-12-07T13:21:59;3.30;;;1.58;;
70148;SDS011;57514;52.164;5.282;2022-12-07T13:24:26;5.65;;;1.13;;
70148;SDS011;57514;52.164;5.282;2022-12-07T13:26:54;3.17;;;1.23;;
70148;SDS011;57514;52.164;5.282;2022-12-07T13:29:22;3.45;;;1.23;;
70148;SDS011;57514;52.164;5.282;2022-12-07T13:37:26;5.38;;;1.60;;
70148;SDS011;57514;52.164;5.282;2022-12-07T13:40:23;4.57;;;1.92;;
70148;SDS011;57514;52.164;5.282;2022-12-07T13:42:56;6.32;;;1.83;;
70148;SDS011;57514;52.164;5.282;2022-12-07T13:45:27;9.85;;;2.13;;
70148;SDS011;57514;52.164;5.282;2022-12-07T13:50:57;7.35;;;2.33;;
70148;SDS011;57514;52.164;5.282;2022-12-07T13:53:24;5.75;;;2.40;;
70148;SDS011;57514;52.164;5.282;2022-12-07T13:55:57;6.28;;;2.28;;
70148;SDS011;57514;52.164;5.282;2022-12-07T13:58:25;7.15;;;2.58;;
70148;SDS011;57514;52.164;5.282;2022-12-07T14:00:53;5.47;;;2.00;;
70148;SDS011;57514;52.164;5.282;2022-12-07T14:03:23;7.60;;;2.03;;
70148;SDS011;57514;52.164;5.282;2022-12-07T14:06:13;7.35;;;2.00;;
70148;SDS011;57514;52.164;5.282;2022-12-07T14:08:42;6.78;;;2.28;;
70148;SDS011;57514;52.164;5.282;2022-12-07T14:11:12;7.82;;;2.20;;
70148;SDS011;57514;52.164;5.282;2022-12-07T14:16:23;5.32;;;1.70;;
70148;SDS011;57514;52.164;5.282;2022-12-07T14:18:55;4.85;;;1.60;;
70148;SDS011;57514;52.164;5.282;2022-12-07T14:21:25;5.38;;;2.00;;
70148;SDS011;57514;52.164;5.282;2022-12-07T14:26:35;2.85;;;1.25;;
70148;SDS011;57514;52.164;5.282;2022-12-07T14:29:19;4.43;;;1.40;;
70148;SDS011;57514;52.164;5.282;2022-12-07T14:31:46;6.25;;;1.45;;
70148;SDS011;57514;52.164;5.282;2022-12-07T14:34:14;3.45;;;1.10;;
70148;SDS011;57514;52.164;5.282;2022-12-07T14:36:41;4.05;;;1.85;;
70148;SDS011;57514;52.164;5.282;2022-12-07T14:39:08;4.68;;;1.42;;
70148;SDS011;57514;52.164;5.282;2022-12-07T14:44:22;3.55;;;1.50;;
70148;SDS011;57514;52.164;5.282;2022-12-07T14:46:54;7.10;;;2.13;;
70148;SDS011;57514;52.164;5.282;2022-12-07T14:49:42;10.55;;;4.43;;
70148;SDS011;57514;52.164;5.282;2022-12-07T14:52:16;11.13;;;5.18;;
70148;SDS011;57514;52.164;5.282;2022-12-07T14:55:12;6.82;;;2.95;;
70148;SDS011;57514;52.164;5.282;2022-12-07T14:57:40;10.85;;;2.80;;
70148;SDS011;57514;52.164;5.282;2022-12-07T15:00:08;6.13;;;1.60;;
70148;SDS011;57514;52.164;5.282;2022-12-07T15:02:35;4.85;;;2.03;;
70148;SDS011;57514;52.164;5.282;2022-12-07T15:05:03;3.97;;;1.73;;
70148;SDS011;57514;52.164;5.282;2022-12-07T15:07:37;6.15;;;2.05;;
70148;SDS011;57514;52.164;5.282;2022-12-07T15:13:13;4.38;;;1.98;;
70148;SDS011;57514;52.164;5.282;2022-12-07T15:16:19;6.30;;;1.92;;
70148;SDS011;57514;52.164;5.282;2022-12-07T15:18:47;11.32;;;2.40;;
70148;SDS011;57514;52.164;5.282;2022-12-07T15:21:34;8.20;;;3.60;;
70148;SDS011;57514;52.164;5.282;2022-12-07T15:24:01;7.38;;;3.20;;
70148;SDS011;57514;52.164;5.282;2022-12-07T15:26:29;4.43;;;2.60;;
70148;SDS011;57514;52.164;5.282;2022-12-07T15:28:56;9.40;;;2.72;;
70148;SDS011;57514;52.164;5.282;2022-12-07T15:31:23;6.78;;;2.05;;
70148;SDS011;57514;52.164;5.282;2022-12-07T15:34:10;7.50;;;3.30;;
70148;SDS011;57514;52.164;5.282;2022-12-07T15:36:38;16.60;;;11.18;;
70148;SDS011;57514;52.164;5.282;2022-12-07T15:39:05;31.92;;;21.70;;
70148;SDS011;57514;52.164;5.282;2022-12-07T15:41:40;28.20;;;18.58;;
70148;SDS011;57514;52.164;5.282;2022-12-07T15:44:19;41.25;;;25.63;;
70148;SDS011;57514;52.164;5.282;2022-12-07T15:47:05;42.20;;;29.23;;
70148;SDS011;57514;52.164;5.282;2022-12-07T15:49:34;35.08;;;22.38;;
70148;SDS011;57514;52.164;5.282;2022-12-07T15:52:01;23.40;;;16.02;;
70148;SDS011;57514;52.164;5.282;2022-12-07T15:54:29;22.50;;;13.38;;
70148;SDS011;57514;52.164;5.282;2022-12-07T15:56:56;36.92;;;23.05;;
70148;SDS011;57514;52.164;5.282;2022-12-07T15:59:23;19.67;;;11.70;;
70148;SDS011;57514;52.164;5.282;2022-12-07T16:01:52;10.18;;;4.05;;
70148;SDS011;57514;52.164;5.282;2022-12-07T16:04:22;11.88;;;4.70;;
70148;SDS011;57514;52.164;5.282;2022-12-07T16:06:49;18.30;;;7.25;;
70148;SDS011;57514;52.164;5.282;2022-12-07T16:09:17;16.25;;;6.03;;
70148;SDS011;57514;52.164;5.282;2022-12-07T16:11:45;7.35;;;3.05;;
70148;SDS011;57514;52.164;5.282;2022-12-07T16:14:12;10.32;;;3.10;;
70148;SDS011;57514;52.164;5.282;2022-12-07T16:16:40;34.70;;;10.32;;
70148;SDS011;57514;52.164;5.282;2022-12-07T16:19:08;30.45;;;10.65;;
70148;SDS011;57514;52.164;5.282;2022-12-07T16:21:35;10.68;;;3.08;;
70148;SDS011;57514;52.164;5.282;2022-12-07T16:24:02;9.50;;;3.35;;
70148;SDS011;57514;52.164;5.282;2022-12-07T16:26:31;11.35;;;3.88;;
70148;SDS011;57514;52.164;5.282;2022-12-07T16:28:58;18.08;;;7.00;;
70148;SDS011;57514;52.164;5.282;2022-12-07T16:31:29;18.63;;;7.05;;
70148;SDS011;57514;52.164;5.282;2022-12-07T16:33:57;18.25;;;10.10;;
70148;SDS011;57514;52.164;5.282;2022-12-07T16:36:25;19.83;;;10.45;;
70148;SDS011;57514;52.164;5.282;2022-12-07T16:39:13;19.92;;;9.73;;
70148;SDS011;57514;52.164;5.282;2022-12-07T16:41:40;19.45;;;8.32;;
70148;SDS011;57514;52.164;5.282;2022-12-07T16:44:10;19.65;;;8.27;;
70148;SDS011;57514;52.164;5.282;2022-12-07T16:46:38;22.23;;;8.13;;
70148;SDS011;57514;52.164;5.282;2022-12-07T16:49:11;17.55;;;7.25;;
70148;SDS011;57514;52.164;5.282;2022-12-07T16:51:39;18.15;;;7.40;;
70148;SDS011;57514;52.164;5.282;2022-12-07T16:54:09;17.17;;;6.05;;
70148;SDS011;57514;52.164;5.282;2022-12-07T16:56:37;12.38;;;5.00;;
70148;SDS011;57514;52.164;5.282;2022-12-07T16:59:25;11.52;;;5.25;;
70148;SDS011;57514;52.164;5.282;2022-12-07T17:01:52;10.77;;;4.07;;
70148;SDS011;57514;52.164;5.282;2022-12-07T17:04:27;13.48;;;4.97;;
70148;SDS011;57514;52.164;5.282;2022-12-07T17:06:55;11.98;;;3.40;;